sensor_id;sensor_type;location;lat;lon;timestamp;P1;durP1;ratioP1;P2;durP2;ratioP2
22949;SDS011;11641;51.018;4.474;2023-03-04T00:02:15;24.17;;;8.90;;
22949;SDS011;11641;51.018;4.474;2023-03-04T00:04:41;17.45;;;8.23;;
22949;SDS011;11641;51.018;4.474;2023-03-04T00:07:09;17.42;;;8.23;;
22949;SDS011;11641;51.018;4.474;2023-03-04T00:09:35;19.85;;;8.32;;
22949;SDS011;11641;51.018;4.474;2023-03-04T00:12:01;21.67;;;8.45;;
22949;SDS011;11641;51.018;4.474;2023-03-04T00:14:29;24.67;;;8.20;;
22949;SDS011;11641;51.018;4.474;2023-03-04T00:16:54;20.85;;;7.63;;
22949;SDS011;11641;51.018;4.474;2023-03-04T00:19:20;15.73;;;7.15;;
22949;SDS011;11641;51.018;4.474;2023-03-04T00:21:46;21.92;;;7.40;;
22949;SDS011;11641;51.018;4.474;2023-03-04T00:24:12;16.85;;;7.25;;
22949;SDS011;11641;51.018;4.474;2023-03-04T00:26:37;20.20;;;7.60;;
22949;SDS011;11641;51.018;4.474;2023-03-04T00:29:03;21.75;;;7.32;;
22949;SDS011;11641;51.018;4.474;2023-03-04T00:31:29;25.75;;;7.97;;
22949;SDS011;11641;51.018;4.474;2023-03-04T00:33:55;29.20;;;8.57;;
22949;SDS011;11641;51.018;4.474;2023-03-04T00:36:20;19.10;;;7.93;;
22949;SDS011;11641;51.018;4.474;2023-03-04T00:38:46;22.23;;;7.45;;
22949;SDS011;11641;51.018;4.474;2023-03-04T00:41:12;19.88;;;7.88;;
22949;SDS011;11641;51.018;4.474;2023-03-04T00:43:38;19.77;;;9.32;;
22949;SDS011;11641;51.018;4.474;2023-03-04T00:46:03;18.45;;;9.10;;
22949;SDS011;11641;51.018;4.474;2023-03-04T00:48:36;27.88;;;8.88;;
22949;SDS011;11641;51.018;4.474;2023-03-04T00:51:02;23.55;;;8.98;;
22949;SDS011;11641;51.018;4.474;2023-03-04T00:53:29;18.33;;;9.00;;
22949;SDS011;11641;51.018;4.474;2023-03-04T00:55:54;23.90;;;9.27;;
22949;SDS011;11641;51.018;4.474;2023-03-04T00:58:20;21.63;;;8.95;;
22949;SDS011;11641;51.018;4.474;2023-03-04T01:00:46;27.48;;;8.52;;
22949;SDS011;11641;51.018;4.474;2023-03-04T01:03:12;16.83;;;7.80;;
22949;SDS011;11641;51.018;4.474;2023-03-04T01:05:37;21.67;;;7.57;;
22949;SDS011;11641;51.018;4.474;2023-03-04T01:08:04;23.75;;;7.80;;
22949;SDS011;11641;51.018;4.474;2023-03-04T01:10:29;20.33;;;7.40;;
22949;SDS011;11641;51.018;4.474;2023-03-04T01:12:55;17.42;;;6.60;;
22949;SDS011;11641;51.018;4.474;2023-03-04T01:15:23;17.98;;;7.60;;
22949;SDS011;11641;51.018;4.474;2023-03-04T01:17:49;23.58;;;7.25;;
22949;SDS011;11641;51.018;4.474;2023-03-04T01:20:15;23.60;;;7.80;;
22949;SDS011;11641;51.018;4.474;2023-03-04T01:22:41;24.52;;;7.28;;
22949;SDS011;11641;51.018;4.474;2023-03-04T01:25:09;28.27;;;7.05;;
22949;SDS011;11641;51.018;4.474;2023-03-04T01:27:35;22.80;;;7.32;;
22949;SDS011;11641;51.018;4.474;2023-03-04T01:30:01;23.92;;;7.40;;
22949;SDS011;11641;51.018;4.474;2023-03-04T01:32:27;20.95;;;7.50;;
22949;SDS011;11641;51.018;4.474;2023-03-04T01:34:53;27.23;;;7.45;;
22949;SDS011;11641;51.018;4.474;2023-03-04T01:37:18;13.30;;;6.00;;
22949;SDS011;11641;51.018;4.474;2023-03-04T01:39:44;23.60;;;8.15;;
22949;SDS011;11641;51.018;4.474;2023-03-04T01:42:16;24.80;;;7.13;;
22949;SDS011;11641;51.018;4.474;2023-03-04T01:44:45;20.63;;;6.25;;
22949;SDS011;11641;51.018;4.474;2023-03-04T01:47:12;20.70;;;7.38;;
22949;SDS011;11641;51.018;4.474;2023-03-04T01:49:39;25.05;;;6.15;;
22949;SDS011;11641;51.018;4.474;2023-03-04T01:52:08;13.82;;;5.68;;
22949;SDS011;11641;51.018;4.474;2023-03-04T01:54:36;16.65;;;5.97;;
22949;SDS011;11641;51.018;4.474;2023-03-04T01:57:06;21.67;;;8.02;;
22949;SDS011;11641;51.018;4.474;2023-03-04T01:59:44;22.05;;;5.78;;
22949;SDS011;11641;51.018;4.474;2023-03-04T02:02:10;20.15;;;5.90;;
22949;SDS011;11641;51.018;4.474;2023-03-04T02:04:37;19.40;;;5.80;;
22949;SDS011;11641;51.018;4.474;2023-03-04T02:07:04;22.58;;;5.20;;
22949;SDS011;11641;51.018;4.474;2023-03-04T02:09:31;18.60;;;5.32;;
22949;SDS011;11641;51.018;4.474;2023-03-04T02:11:57;24.88;;;5.95;;
22949;SDS011;11641;51.018;4.474;2023-03-04T02:14:24;15.90;;;5.15;;
22949;SDS011;11641;51.018;4.474;2023-03-04T02:16:52;19.50;;;5.28;;
22949;SDS011;11641;51.018;4.474;2023-03-04T02:19:22;19.65;;;5.30;;
22949;SDS011;11641;51.018;4.474;2023-03-04T02:22:00;13.90;;;4.90;;
22949;SDS011;11641;51.018;4.474;2023-03-04T02:27:09;25.80;;;6.57;;
22949;SDS011;11641;51.018;4.474;2023-03-04T02:29:35;17.10;;;5.40;;
22949;SDS011;11641;51.018;4.474;2023-03-04T02:32:01;20.75;;;5.93;;
22949;SDS011;11641;51.018;4.474;2023-03-04T02:34:28;20.80;;;5.28;;
22949;SDS011;11641;51.018;4.474;2023-03-04T02:36:57;20.42;;;5.60;;
22949;SDS011;11641;51.018;4.474;2023-03-04T02:39:27;19.33;;;5.90;;
22949;SDS011;11641;51.018;4.474;2023-03-04T02:41:56;16.40;;;5.37;;
22949;SDS011;11641;51.018;4.474;2023-03-04T02:46:51;23.00;;;5.47;;
22949;SDS011;11641;51.018;4.474;2023-03-04T02:49:18;18.42;;;5.10;;
22949;SDS011;11641;51.018;4.474;2023-03-04T02:51:44;18.85;;;5.57;;
22949;SDS011;11641;51.018;4.474;2023-03-04T02:54:18;19.48;;;5.20;;
22949;SDS011;11641;51.018;4.474;2023-03-04T02:56:46;17.30;;;5.13;;
22949;SDS011;11641;51.018;4.474;2023-03-04T02:59:14;19.55;;;5.20;;
22949;SDS011;11641;51.018;4.474;2023-03-04T03:01:40;18.10;;;5.18;;
22949;SDS011;11641;51.018;4.474;2023-03-04T03:04:06;15.85;;;5.53;;
22949;SDS011;11641;51.018;4.474;2023-03-04T03:06:32;18.90;;;5.40;;
22949;SDS011;11641;51.018;4.474;2023-03-04T03:08:58;21.77;;;5.00;;
22949;SDS011;11641;51.018;4.474;2023-03-04T03:11:26;18.98;;;5.55;;
22949;SDS011;11641;51.018;4.474;2023-03-04T03:13:52;20.90;;;6.40;;
22949;SDS011;11641;51.018;4.474;2023-03-04T03:16:18;12.90;;;5.68;;
22949;SDS011;11641;51.018;4.474;2023-03-04T03:18:43;20.02;;;6.13;;
22949;SDS011;11641;51.018;4.474;2023-03-04T03:21:09;17.50;;;5.90;;
22949;SDS011;11641;51.018;4.474;2023-03-04T03:23:35;18.48;;;6.32;;
22949;SDS011;11641;51.018;4.474;2023-03-04T03:26:01;21.13;;;6.20;;
22949;SDS011;11641;51.018;4.474;2023-03-04T03:28:27;20.90;;;6.03;;
22949;SDS011;11641;51.018;4.474;2023-03-04T03:30:53;22.50;;;6.25;;
22949;SDS011;11641;51.018;4.474;2023-03-04T03:33:19;15.30;;;5.80;;
22949;SDS011;11641;51.018;4.474;2023-03-04T03:35:45;18.48;;;6.25;;
22949;SDS011;11641;51.018;4.474;2023-03-04T03:38:11;22.67;;;6.78;;
22949;SDS011;11641;51.018;4.474;2023-03-04T03:40:36;22.00;;;6.88;;
22949;SDS011;11641;51.018;4.474;2023-03-04T03:43:05;18.23;;;7.00;;
22949;SDS011;11641;51.018;4.474;2023-03-04T03:45:30;21.10;;;6.55;;
22949;SDS011;11641;51.018;4.474;2023-03-04T03:47:57;25.08;;;6.97;;
22949;SDS011;11641;51.018;4.474;2023-03-04T03:50:22;25.20;;;6.88;;
22949;SDS011;11641;51.018;4.474;2023-03-04T03:52:52;22.55;;;6.57;;
22949;SDS011;11641;51.018;4.474;2023-03-04T03:55:20;19.25;;;6.15;;
22949;SDS011;11641;51.018;4.474;2023-03-04T03:57:46;16.90;;;6.53;;
22949;SDS011;11641;51.018;4.474;2023-03-04T04:00:14;18.52;;;6.70;;
22949;SDS011;11641;51.018;4.474;2023-03-04T04:02:41;21.67;;;6.95;;
22949;SDS011;11641;51.018;4.474;2023-03-04T04:05:07;24.98;;;7.88;;
22949;SDS011;11641;51.018;4.474;2023-03-04T04:07:34;16.80;;;7.75;;
22949;SDS011;11641;51.018;4.474;2023-03-04T04:10:03;22.98;;;7.65;;
22949;SDS011;11641;51.018;4.474;2023-03-04T04:12:30;17.55;;;7.03;;
22949;SDS011;11641;51.018;4.474;2023-03-04T04:14:56;23.00;;;7.80;;
22949;SDS011;11641;51.018;4.474;2023-03-04T04:17:24;25.10;;;8.02;;
22949;SDS011;11641;51.018;4.474;2023-03-04T04:19:52;21.75;;;8.15;;
22949;SDS011;11641;51.018;4.474;2023-03-04T04:22:19;20.25;;;7.68;;
22949;SDS011;11641;51.018;4.474;2023-03-04T04:24:46;31.13;;;8.32;;
22949;SDS011;11641;51.018;4.474;2023-03-04T04:27:13;25.77;;;8.38;;
22949;SDS011;11641;51.018;4.474;2023-03-04T04:29:39;20.23;;;8.13;;
22949;SDS011;11641;51.018;4.474;2023-03-04T04:32:07;21.65;;;8.02;;
22949;SDS011;11641;51.018;4.474;2023-03-04T04:34:37;17.73;;;7.57;;
22949;SDS011;11641;51.018;4.474;2023-03-04T04:37:03;18.17;;;7.43;;
22949;SDS011;11641;51.018;4.474;2023-03-04T04:39:29;19.60;;;7.38;;
22949;SDS011;11641;51.018;4.474;2023-03-04T04:41:55;18.25;;;6.82;;
22949;SDS011;11641;51.018;4.474;2023-03-04T04:44:20;19.65;;;6.80;;
22949;SDS011;11641;51.018;4.474;2023-03-04T04:46:46;20.13;;;6.70;;
22949;SDS011;11641;51.018;4.474;2023-03-04T04:49:12;20.58;;;5.97;;
22949;SDS011;11641;51.018;4.474;2023-03-04T04:51:38;14.45;;;5.20;;
22949;SDS011;11641;51.018;4.474;2023-03-04T04:54:07;16.98;;;6.00;;
22949;SDS011;11641;51.018;4.474;2023-03-04T04:56:34;16.92;;;5.13;;
22949;SDS011;11641;51.018;4.474;2023-03-04T04:59:01;16.55;;;5.97;;
22949;SDS011;11641;51.018;4.474;2023-03-04T05:01:28;16.75;;;6.10;;
22949;SDS011;11641;51.018;4.474;2023-03-04T05:03:54;10.90;;;5.03;;
22949;SDS011;11641;51.018;4.474;2023-03-04T05:06:21;18.27;;;5.55;;
22949;SDS011;11641;51.018;4.474;2023-03-04T05:08:48;25.08;;;5.50;;
22949;SDS011;11641;51.018;4.474;2023-03-04T05:11:15;19.38;;;5.20;;
22949;SDS011;11641;51.018;4.474;2023-03-04T05:13:41;17.38;;;5.28;;
22949;SDS011;11641;51.018;4.474;2023-03-04T05:16:13;20.73;;;5.10;;
22949;SDS011;11641;51.018;4.474;2023-03-04T05:18:42;16.80;;;5.20;;
22949;SDS011;11641;51.018;4.474;2023-03-04T05:21:08;19.23;;;5.05;;
22949;SDS011;11641;51.018;4.474;2023-03-04T05:23:35;15.27;;;4.50;;
22949;SDS011;11641;51.018;4.474;2023-03-04T05:26:03;22.38;;;4.57;;
22949;SDS011;11641;51.018;4.474;2023-03-04T05:28:31;15.70;;;4.32;;
22949;SDS011;11641;51.018;4.474;2023-03-04T05:30:57;10.77;;;3.65;;
22949;SDS011;11641;51.018;4.474;2023-03-04T05:33:23;15.95;;;3.45;;
22949;SDS011;11641;51.018;4.474;2023-03-04T05:35:49;16.73;;;3.10;;
22949;SDS011;11641;51.018;4.474;2023-03-04T05:38:20;9.73;;;2.42;;
22949;SDS011;11641;51.018;4.474;2023-03-04T05:40:47;10.38;;;3.28;;
22949;SDS011;11641;51.018;4.474;2023-03-04T05:43:20;11.03;;;2.63;;
22949;SDS011;11641;51.018;4.474;2023-03-04T05:45:48;12.38;;;2.38;;
22949;SDS011;11641;51.018;4.474;2023-03-04T05:48:14;15.43;;;2.55;;
22949;SDS011;11641;51.018;4.474;2023-03-04T05:50:42;8.07;;;1.90;;
22949;SDS011;11641;51.018;4.474;2023-03-04T05:53:08;13.38;;;2.45;;
22949;SDS011;11641;51.018;4.474;2023-03-04T05:55:34;12.05;;;2.58;;
22949;SDS011;11641;51.018;4.474;2023-03-04T05:58:01;9.75;;;2.25;;
22949;SDS011;11641;51.018;4.474;2023-03-04T06:00:30;16.33;;;2.33;;
22949;SDS011;11641;51.018;4.474;2023-03-04T06:02:56;11.40;;;2.20;;
22949;SDS011;11641;51.018;4.474;2023-03-04T06:05:22;10.88;;;1.95;;
22949;SDS011;11641;51.018;4.474;2023-03-04T06:07:48;9.20;;;2.00;;
22949;SDS011;11641;51.018;4.474;2023-03-04T06:10:14;10.65;;;1.77;;
22949;SDS011;11641;51.018;4.474;2023-03-04T06:12:41;15.80;;;2.22;;
22949;SDS011;11641;51.018;4.474;2023-03-04T06:15:07;14.00;;;2.40;;
22949;SDS011;11641;51.018;4.474;2023-03-04T06:17:34;13.02;;;2.40;;
22949;SDS011;11641;51.018;4.474;2023-03-04T06:20:02;15.63;;;2.75;;
22949;SDS011;11641;51.018;4.474;2023-03-04T06:22:30;13.60;;;2.63;;
22949;SDS011;11641;51.018;4.474;2023-03-04T06:24:55;11.88;;;2.10;;
22949;SDS011;11641;51.018;4.474;2023-03-04T06:27:21;7.88;;;2.45;;
22949;SDS011;11641;51.018;4.474;2023-03-04T06:29:50;6.18;;;1.98;;
22949;SDS011;11641;51.018;4.474;2023-03-04T06:32:17;10.02;;;2.22;;
22949;SDS011;11641;51.018;4.474;2023-03-04T06:34:43;12.15;;;2.05;;
22949;SDS011;11641;51.018;4.474;2023-03-04T06:37:08;8.02;;;2.25;;
22949;SDS011;11641;51.018;4.474;2023-03-04T06:39:36;13.23;;;2.35;;
22949;SDS011;11641;51.018;4.474;2023-03-04T06:42:02;11.27;;;2.17;;
22949;SDS011;11641;51.018;4.474;2023-03-04T06:44:28;14.25;;;2.60;;
22949;SDS011;11641;51.018;4.474;2023-03-04T06:46:53;8.45;;;2.25;;
22949;SDS011;11641;51.018;4.474;2023-03-04T06:49:19;10.10;;;2.38;;
22949;SDS011;11641;51.018;4.474;2023-03-04T06:51:45;16.73;;;2.70;;
22949;SDS011;11641;51.018;4.474;2023-03-04T06:54:11;15.48;;;2.90;;
22949;SDS011;11641;51.018;4.474;2023-03-04T06:56:36;12.60;;;2.55;;
22949;SDS011;11641;51.018;4.474;2023-03-04T06:59:02;8.32;;;2.38;;
22949;SDS011;11641;51.018;4.474;2023-03-04T07:01:28;10.02;;;2.38;;
22949;SDS011;11641;51.018;4.474;2023-03-04T07:03:54;18.67;;;2.90;;
22949;SDS011;11641;51.018;4.474;2023-03-04T07:06:24;18.52;;;3.10;;
22949;SDS011;11641;51.018;4.474;2023-03-04T07:08:51;18.67;;;3.17;;
22949;SDS011;11641;51.018;4.474;2023-03-04T07:11:18;14.57;;;3.15;;
22949;SDS011;11641;51.018;4.474;2023-03-04T07:13:44;11.43;;;2.70;;
22949;SDS011;11641;51.018;4.474;2023-03-04T07:16:11;12.75;;;3.22;;
22949;SDS011;11641;51.018;4.474;2023-03-04T07:18:41;14.10;;;2.55;;
22949;SDS011;11641;51.018;4.474;2023-03-04T07:21:07;9.93;;;2.63;;
22949;SDS011;11641;51.018;4.474;2023-03-04T07:23:33;10.27;;;1.90;;
22949;SDS011;11641;51.018;4.474;2023-03-04T07:26:00;8.45;;;2.33;;
22949;SDS011;11641;51.018;4.474;2023-03-04T07:28:26;10.25;;;1.60;;
22949;SDS011;11641;51.018;4.474;2023-03-04T07:30:52;13.25;;;1.75;;
22949;SDS011;11641;51.018;4.474;2023-03-04T07:33:18;6.97;;;1.85;;
22949;SDS011;11641;51.018;4.474;2023-03-04T07:35:43;11.77;;;1.75;;
22949;SDS011;11641;51.018;4.474;2023-03-04T07:38:09;15.77;;;1.80;;
22949;SDS011;11641;51.018;4.474;2023-03-04T07:40:36;13.43;;;1.70;;
22949;SDS011;11641;51.018;4.474;2023-03-04T07:43:01;9.27;;;1.65;;
22949;SDS011;11641;51.018;4.474;2023-03-04T07:45:28;7.60;;;1.60;;
22949;SDS011;11641;51.018;4.474;2023-03-04T07:47:53;10.13;;;2.05;;
22949;SDS011;11641;51.018;4.474;2023-03-04T07:50:19;9.80;;;1.42;;
22949;SDS011;11641;51.018;4.474;2023-03-04T07:52:51;8.68;;;1.88;;
22949;SDS011;11641;51.018;4.474;2023-03-04T07:55:17;10.30;;;2.00;;
22949;SDS011;11641;51.018;4.474;2023-03-04T07:57:44;9.85;;;2.72;;
22949;SDS011;11641;51.018;4.474;2023-03-04T08:00:12;8.57;;;1.77;;
22949;SDS011;11641;51.018;4.474;2023-03-04T08:02:41;8.75;;;2.30;;
22949;SDS011;11641;51.018;4.474;2023-03-04T08:05:07;10.95;;;2.03;;
22949;SDS011;11641;51.018;4.474;2023-03-04T08:07:36;10.90;;;1.98;;
22949;SDS011;11641;51.018;4.474;2023-03-04T08:10:02;11.77;;;2.00;;
22949;SDS011;11641;51.018;4.474;2023-03-04T08:12:28;8.95;;;1.55;;
22949;SDS011;11641;51.018;4.474;2023-03-04T08:14:54;14.52;;;1.77;;
22949;SDS011;11641;51.018;4.474;2023-03-04T08:17:20;10.95;;;1.95;;
22949;SDS011;11641;51.018;4.474;2023-03-04T08:19:45;8.75;;;1.80;;
22949;SDS011;11641;51.018;4.474;2023-03-04T08:22:16;13.52;;;1.83;;
22949;SDS011;11641;51.018;4.474;2023-03-04T08:24:42;13.73;;;1.77;;
22949;SDS011;11641;51.018;4.474;2023-03-04T08:27:07;8.93;;;2.00;;
22949;SDS011;11641;51.018;4.474;2023-03-04T08:29:33;10.95;;;1.85;;
22949;SDS011;11641;51.018;4.474;2023-03-04T08:31:59;10.88;;;1.92;;
22949;SDS011;11641;51.018;4.474;2023-03-04T08:34:28;9.02;;;1.50;;
22949;SDS011;11641;51.018;4.474;2023-03-04T08:36:54;11.10;;;2.00;;
22949;SDS011;11641;51.018;4.474;2023-03-04T08:39:20;9.82;;;2.17;;
22949;SDS011;11641;51.018;4.474;2023-03-04T08:41:46;12.10;;;2.10;;
22949;SDS011;11641;51.018;4.474;2023-03-04T08:44:14;8.40;;;2.53;;
22949;SDS011;11641;51.018;4.474;2023-03-04T08:46:41;13.77;;;2.30;;
22949;SDS011;11641;51.018;4.474;2023-03-04T08:49:08;7.30;;;1.60;;
22949;SDS011;11641;51.018;4.474;2023-03-04T08:51:38;12.80;;;2.10;;
22949;SDS011;11641;51.018;4.474;2023-03-04T08:54:07;12.27;;;1.70;;
22949;SDS011;11641;51.018;4.474;2023-03-04T08:56:32;15.48;;;2.20;;
22949;SDS011;11641;51.018;4.474;2023-03-04T08:58:58;11.98;;;2.08;;
22949;SDS011;11641;51.018;4.474;2023-03-04T09:01:24;9.55;;;2.08;;
22949;SDS011;11641;51.018;4.474;2023-03-04T09:03:51;9.57;;;2.15;;
22949;SDS011;11641;51.018;4.474;2023-03-04T09:06:16;9.68;;;2.70;;
22949;SDS011;11641;51.018;4.474;2023-03-04T09:08:43;11.90;;;2.25;;
22949;SDS011;11641;51.018;4.474;2023-03-04T09:11:09;8.27;;;2.05;;
22949;SDS011;11641;51.018;4.474;2023-03-04T09:13:36;13.80;;;2.83;;
22949;SDS011;11641;51.018;4.474;2023-03-04T09:16:02;13.05;;;2.50;;
22949;SDS011;11641;51.018;4.474;2023-03-04T09:18:35;7.07;;;2.03;;
22949;SDS011;11641;51.018;4.474;2023-03-04T09:21:01;7.80;;;2.80;;
22949;SDS011;11641;51.018;4.474;2023-03-04T09:23:27;15.52;;;2.38;;
22949;SDS011;11641;51.018;4.474;2023-03-04T09:25:55;11.38;;;2.25;;
22949;SDS011;11641;51.018;4.474;2023-03-04T09:28:23;9.65;;;1.98;;
22949;SDS011;11641;51.018;4.474;2023-03-04T09:30:49;12.43;;;2.40;;
22949;SDS011;11641;51.018;4.474;2023-03-04T09:33:15;11.52;;;2.55;;
22949;SDS011;11641;51.018;4.474;2023-03-04T09:35:43;9.15;;;2.22;;
22949;SDS011;11641;51.018;4.474;2023-03-04T09:38:09;15.90;;;3.03;;
22949;SDS011;11641;51.018;4.474;2023-03-04T09:40:39;13.02;;;2.80;;
22949;SDS011;11641;51.018;4.474;2023-03-04T09:43:11;12.05;;;2.53;;
22949;SDS011;11641;51.018;4.474;2023-03-04T09:45:54;9.82;;;3.03;;
22949;SDS011;11641;51.018;4.474;2023-03-04T09:48:25;10.63;;;3.15;;
22949;SDS011;11641;51.018;4.474;2023-03-04T09:56:48;12.80;;;3.53;;
22949;SDS011;11641;51.018;4.474;2023-03-04T10:01:54;12.68;;;3.97;;
22949;SDS011;11641;51.018;4.474;2023-03-04T10:04:36;16.13;;;4.25;;
22949;SDS011;11641;51.018;4.474;2023-03-04T10:07:20;13.60;;;3.92;;
22949;SDS011;11641;51.018;4.474;2023-03-04T10:10:05;11.57;;;4.03;;
22949;SDS011;11641;51.018;4.474;2023-03-04T10:12:41;16.42;;;4.30;;
22949;SDS011;11641;51.018;4.474;2023-03-04T10:18:15;15.15;;;3.50;;
22949;SDS011;11641;51.018;4.474;2023-03-04T10:20:53;11.90;;;3.55;;
22949;SDS011;11641;51.018;4.474;2023-03-04T10:23:28;13.70;;;4.05;;
22949;SDS011;11641;51.018;4.474;2023-03-04T10:25:56;14.93;;;3.80;;
22949;SDS011;11641;51.018;4.474;2023-03-04T10:28:25;9.05;;;2.83;;
22949;SDS011;11641;51.018;4.474;2023-03-04T10:30:56;11.02;;;2.67;;
22949;SDS011;11641;51.018;4.474;2023-03-04T10:33:41;8.75;;;2.35;;
22949;SDS011;11641;51.018;4.474;2023-03-04T10:38:48;8.77;;;2.25;;
22949;SDS011;11641;51.018;4.474;2023-03-04T10:41:21;12.35;;;2.80;;
22949;SDS011;11641;51.018;4.474;2023-03-04T10:46:36;10.50;;;2.40;;
22949;SDS011;11641;51.018;4.474;2023-03-04T10:49:03;5.90;;;1.45;;
22949;SDS011;11641;51.018;4.474;2023-03-04T10:51:29;3.17;;;1.20;;
22949;SDS011;11641;51.018;4.474;2023-03-04T10:53:59;8.75;;;1.08;;
22949;SDS011;11641;51.018;4.474;2023-03-04T10:56:36;7.50;;;1.20;;
22949;SDS011;11641;51.018;4.474;2023-03-04T11:01:56;10.93;;;2.72;;
22949;SDS011;11641;51.018;4.474;2023-03-04T11:04:24;11.50;;;3.20;;
22949;SDS011;11641;51.018;4.474;2023-03-04T11:06:51;9.93;;;1.95;;
22949;SDS011;11641;51.018;4.474;2023-03-04T11:09:25;4.03;;;1.00;;
22949;SDS011;11641;51.018;4.474;2023-03-04T11:12:01;5.10;;;1.15;;
22949;SDS011;11641;51.018;4.474;2023-03-04T11:14:47;4.65;;;1.20;;
22949;SDS011;11641;51.018;4.474;2023-03-04T11:22:20;10.77;;;2.35;;
22949;SDS011;11641;51.018;4.474;2023-03-04T11:25:09;11.30;;;2.45;;
22949;SDS011;11641;51.018;4.474;2023-03-04T11:27:56;9.95;;;2.97;;
22949;SDS011;11641;51.018;4.474;2023-03-04T11:30:31;14.48;;;3.72;;
22949;SDS011;11641;51.018;4.474;2023-03-04T11:38:40;14.23;;;3.95;;
22949;SDS011;11641;51.018;4.474;2023-03-04T11:43:44;11.10;;;3.42;;
22949;SDS011;11641;51.018;4.474;2023-03-04T11:51:53;12.38;;;3.55;;
22949;SDS011;11641;51.018;4.474;2023-03-04T11:57:12;13.00;;;3.63;;
22949;SDS011;11641;51.018;4.474;2023-03-04T12:05:26;9.30;;;3.00;;
22949;SDS011;11641;51.018;4.474;2023-03-04T12:08:14;9.57;;;2.33;;
22949;SDS011;11641;51.018;4.474;2023-03-04T12:13:54;6.78;;;2.72;;
22949;SDS011;11641;51.018;4.474;2023-03-04T12:24:26;12.30;;;2.63;;
22949;SDS011;11641;51.018;4.474;2023-03-04T12:29:55;4.90;;;2.03;;
22949;SDS011;11641;51.018;4.474;2023-03-04T12:38:28;12.23;;;2.40;;
22949;SDS011;11641;51.018;4.474;2023-03-04T12:41:09;7.40;;;2.50;;
22949;SDS011;11641;51.018;4.474;2023-03-04T12:43:59;5.70;;;2.70;;
22949;SDS011;11641;51.018;4.474;2023-03-04T12:47:12;5.28;;;2.40;;
22949;SDS011;11641;51.018;4.474;2023-03-04T12:52:40;3.42;;;2.28;;
22949;SDS011;11641;51.018;4.474;2023-03-04T12:55:16;4.78;;;2.22;;
22949;SDS011;11641;51.018;4.474;2023-03-04T12:57:46;7.88;;;2.17;;
22949;SDS011;11641;51.018;4.474;2023-03-04T13:08:17;7.05;;;1.65;;
22949;SDS011;11641;51.018;4.474;2023-03-04T13:10:59;7.38;;;2.40;;
22949;SDS011;11641;51.018;4.474;2023-03-04T13:13:35;6.53;;;2.67;;
22949;SDS011;11641;51.018;4.474;2023-03-04T13:16:26;5.93;;;2.10;;
22949;SDS011;11641;51.018;4.474;2023-03-04T13:18:56;5.32;;;2.15;;
22949;SDS011;11641;51.018;4.474;2023-03-04T13:21:29;5.80;;;1.90;;
22949;SDS011;11641;51.018;4.474;2023-03-04T13:24:00;2.50;;;1.70;;
22949;SDS011;11641;51.018;4.474;2023-03-04T13:26:56;5.47;;;1.80;;
22949;SDS011;11641;51.018;4.474;2023-03-04T13:32:01;2.55;;;1.50;;
22949;SDS011;11641;51.018;4.474;2023-03-04T13:34:49;5.63;;;1.80;;
22949;SDS011;11641;51.018;4.474;2023-03-04T13:37:55;3.50;;;1.60;;
22949;SDS011;11641;51.018;4.474;2023-03-04T13:40:33;2.08;;;1.58;;
22949;SDS011;11641;51.018;4.474;2023-03-04T13:57:09;2.78;;;1.75;;
22949;SDS011;11641;51.018;4.474;2023-03-04T14:02:09;2.88;;;1.67;;
22949;SDS011;11641;51.018;4.474;2023-03-04T14:04:44;3.45;;;1.58;;
22949;SDS011;11641;51.018;4.474;2023-03-04T14:07:19;3.47;;;1.75;;
22949;SDS011;11641;51.018;4.474;2023-03-04T14:09:59;5.85;;;1.90;;
22949;SDS011;11641;51.018;4.474;2023-03-04T14:12:29;2.95;;;1.77;;
22949;SDS011;11641;51.018;4.474;2023-03-04T14:15:15;2.65;;;1.60;;
22949;SDS011;11641;51.018;4.474;2023-03-04T14:17:52;8.85;;;1.80;;
22949;SDS011;11641;51.018;4.474;2023-03-04T14:20:35;4.68;;;1.60;;
22949;SDS011;11641;51.018;4.474;2023-03-04T14:23:26;7.93;;;1.90;;
22949;SDS011;11641;51.018;4.474;2023-03-04T14:28:59;6.20;;;2.63;;
22949;SDS011;11641;51.018;4.474;2023-03-04T14:31:27;4.63;;;2.50;;
22949;SDS011;11641;51.018;4.474;2023-03-04T14:33:55;4.22;;;2.38;;
22949;SDS011;11641;51.018;4.474;2023-03-04T14:36:34;4.28;;;1.98;;
22949;SDS011;11641;51.018;4.474;2023-03-04T14:39:02;6.13;;;2.63;;
22949;SDS011;11641;51.018;4.474;2023-03-04T14:41:37;7.40;;;2.00;;
22949;SDS011;11641;51.018;4.474;2023-03-04T14:44:19;4.15;;;1.67;;
22949;SDS011;11641;51.018;4.474;2023-03-04T14:47:08;7.28;;;1.90;;
22949;SDS011;11641;51.018;4.474;2023-03-04T14:49:37;5.00;;;1.88;;
22949;SDS011;11641;51.018;4.474;2023-03-04T14:52:04;3.55;;;1.60;;
22949;SDS011;11641;51.018;4.474;2023-03-04T14:54:32;5.65;;;1.55;;
22949;SDS011;11641;51.018;4.474;2023-03-04T14:59:50;4.53;;;1.30;;
22949;SDS011;11641;51.018;4.474;2023-03-04T15:04:55;6.00;;;1.30;;
22949;SDS011;11641;51.018;4.474;2023-03-04T15:07:35;5.90;;;1.55;;
22949;SDS011;11641;51.018;4.474;2023-03-04T15:10:04;6.65;;;1.60;;
22949;SDS011;11641;51.018;4.474;2023-03-04T15:15:03;7.07;;;1.30;;
22949;SDS011;11641;51.018;4.474;2023-03-04T15:17:57;4.60;;;1.48;;
22949;SDS011;11641;51.018;4.474;2023-03-04T15:20:25;4.60;;;1.45;;
22949;SDS011;11641;51.018;4.474;2023-03-04T15:22:57;7.55;;;2.50;;
22949;SDS011;11641;51.018;4.474;2023-03-04T15:25:32;7.30;;;1.65;;
22949;SDS011;11641;51.018;4.474;2023-03-04T15:27:59;7.88;;;1.90;;
22949;SDS011;11641;51.018;4.474;2023-03-04T15:30:26;7.82;;;2.45;;
22949;SDS011;11641;51.018;4.474;2023-03-04T15:32:54;8.43;;;1.80;;
22949;SDS011;11641;51.018;4.474;2023-03-04T15:35:24;13.60;;;4.70;;
22949;SDS011;11641;51.018;4.474;2023-03-04T15:37:53;5.15;;;1.25;;
22949;SDS011;11641;51.018;4.474;2023-03-04T15:42:48;4.13;;;1.08;;
22949;SDS011;11641;51.018;4.474;2023-03-04T15:45:27;5.90;;;1.50;;
22949;SDS011;11641;51.018;4.474;2023-03-04T15:47:57;5.95;;;1.40;;
22949;SDS011;11641;51.018;4.474;2023-03-04T15:50:28;5.87;;;1.47;;
22949;SDS011;11641;51.018;4.474;2023-03-04T15:52:58;7.97;;;1.90;;
22949;SDS011;11641;51.018;4.474;2023-03-04T15:55:26;5.50;;;2.28;;
22949;SDS011;11641;51.018;4.474;2023-03-04T15:57:54;3.92;;;1.48;;
22949;SDS011;11641;51.018;4.474;2023-03-04T16:00:22;6.18;;;1.67;;
22949;SDS011;11641;51.018;4.474;2023-03-04T16:02:54;6.05;;;3.35;;
22949;SDS011;11641;51.018;4.474;2023-03-04T16:05:21;3.33;;;1.17;;
22949;SDS011;11641;51.018;4.474;2023-03-04T16:07:47;12.50;;;1.83;;
22949;SDS011;11641;51.018;4.474;2023-03-04T16:10:24;17.45;;;3.85;;
22949;SDS011;11641;51.018;4.474;2023-03-04T16:12:52;6.38;;;1.20;;
22949;SDS011;11641;51.018;4.474;2023-03-04T16:15:19;3.70;;;1.30;;
22949;SDS011;11641;51.018;4.474;2023-03-04T16:17:47;4.78;;;1.20;;
22949;SDS011;11641;51.018;4.474;2023-03-04T16:20:16;7.47;;;1.45;;
22949;SDS011;11641;51.018;4.474;2023-03-04T16:22:45;8.18;;;1.10;;
22949;SDS011;11641;51.018;4.474;2023-03-04T16:25:14;8.25;;;1.70;;
22949;SDS011;11641;51.018;4.474;2023-03-04T16:27:41;7.47;;;1.67;;
22949;SDS011;11641;51.018;4.474;2023-03-04T16:30:11;8.73;;;1.90;;
22949;SDS011;11641;51.018;4.474;2023-03-04T16:32:43;3.97;;;1.27;;
22949;SDS011;11641;51.018;4.474;2023-03-04T16:35:09;7.90;;;1.50;;
22949;SDS011;11641;51.018;4.474;2023-03-04T16:37:36;9.20;;;2.00;;
22949;SDS011;11641;51.018;4.474;2023-03-04T16:40:05;7.57;;;1.70;;
22949;SDS011;11641;51.018;4.474;2023-03-04T16:42:31;5.05;;;2.25;;
22949;SDS011;11641;51.018;4.474;2023-03-04T16:44:57;4.68;;;1.60;;
22949;SDS011;11641;51.018;4.474;2023-03-04T16:47:25;6.88;;;1.85;;